Time;durP1;ratioP1;P1;durP2;ratioP2;P2;SDS_P1;SDS_P2;PMS_P1;PMS_P2;Temp;Humidity;BMP_temperature;BMP_pressure;BME280_temperature;BME280_humidity;BME280_pressure;Samples;Min_cycle;Max_cycle;Signal;HPM_P1;HPM_P2
2022/04/10 00:00:30;;;;;;;;;;;2.10;99.90;;;;;;5017695;28;19932;-70
2022/04/10 00:02:56;;;;;;;;;;;2.00;99.90;;;;;;5017661;28;19905;-70
2022/04/10 00:05:21;;;;;;;;;;;2.00;99.90;;;;;;5017568;28;19909;-70
2022/04/10 00:07:47;;;;;;;;;;;2.00;99.90;;;;;;5032660;28;19909;-70
2022/04/10 00:10:12;;;;;;;;;;;2.00;99.90;;;;;;5017455;28;20412;-70
2022/04/10 00:12:38;;;;;;;;;;;2.00;99.90;;;;;;5017462;28;19913;-70
2022/04/10 00:15:04;;;;;;;;;;;2.00;99.90;;;;;;5017314;28;19958;-70
2022/04/10 00:17:29;;;;;;;;;;;1.90;99.90;;;;;;5017562;28;19912;-70
2022/04/10 00:19:55;;;;;;;;;;;1.90;99.90;;;;;;5017281;28;19913;-70
2022/04/10 00:22:21;;;;;;;;;;;1.90;99.90;;;;;;5017581;28;19909;-70
2022/04/10 00:24:46;;;;;;;;;;;1.80;99.90;;;;;;5017207;28;19912;-70
2022/04/10 00:27:13;;;;;;;;;;;1.80;99.90;;;;;;5017412;28;19909;-70
2022/04/10 00:29:42;;;;;;;;;;;1.70;99.90;;;;;;5032324;28;19913;-70
2022/04/10 00:32:08;;;;;;;;;;;1.70;99.90;;;;;;5017410;28;19906;-70
2022/04/10 00:34:34;;;;;;;;;;;1.60;99.90;;;;;;5032243;28;19912;-70
2022/04/10 00:37:00;;;;;;;;;;;1.60;99.90;;;;;;5016986;28;19906;-70
2022/04/10 00:39:26;;;;;;;;;;;1.60;99.90;;;;;;5016909;28;19905;-70
2022/04/10 00:41:51;;;;;;;;;;;1.50;99.90;;;;;;5016898;28;20273;-70
2022/04/10 00:44:18;;;;;;;;;;;1.50;99.90;;;;;;5017160;28;19905;-70
2022/04/10 00:46:43;;;;;;;;;;;1.60;99.90;;;;;;5016764;28;19944;-70
2022/04/10 00:49:09;;;;;;;;;;;1.60;99.90;;;;;;5015418;28;19905;-70
2022/04/10 00:51:40;;;;;;;;;;;1.70;99.90;;;;;;5017188;28;19979;-70
2022/04/10 00:54:26;;;;;;;;;;;1.70;99.90;;;;;;5017259;28;20350;-70
2022/04/10 00:56:53;;;;;;;;;;;1.70;99.90;;;;;;5016660;28;19905;-70
2022/04/10 00:59:18;;;;;;;;;;;1.70;99.90;;;;;;5016608;28;19905;-70
2022/04/10 01:01:45;;;;;;;;;;;1.80;99.90;;;;;;5016632;28;20285;-70
2022/04/10 01:04:14;;;;;;;;;;;1.80;99.90;;;;;;5016792;28;20003;-70
2022/04/10 01:06:40;;;;;;;;;;;1.80;99.90;;;;;;5016777;28;19941;-70
2022/04/10 01:09:06;;;;;;;;;;;1.80;99.90;;;;;;5016365;28;20428;-70
2022/04/10 01:11:33;;;;;;;;;;;1.80;99.90;;;;;;5016633;28;19986;-70
2022/04/10 01:13:59;;;;;;;;;;;1.90;99.90;;;;;;5016201;28;20285;-70
2022/04/10 01:16:24;;;;;;;;;;;1.80;99.90;;;;;;5016560;28;19905;-70
2022/04/10 01:18:51;;;;;;;;;;;1.80;99.90;;;;;;5016172;28;20251;-70
2022/04/10 01:21:25;;;;;;;;;;;1.80;99.90;;;;;;5016509;28;19967;-70
2022/04/10 01:23:55;;;;;;;;;;;1.80;99.90;;;;;;5016123;28;19912;-70
2022/04/10 01:26:21;;;;;;;;;;;1.80;99.90;;;;;;5016005;28;20429;-70
2022/04/10 01:29:00;;;;;;;;;;;1.80;99.90;;;;;;5015970;28;19912;-70
2022/04/10 01:31:27;;;;;;;;;;;1.70;99.90;;;;;;5016274;28;20003;-70
2022/04/10 01:33:55;;;;;;;;;;;1.70;99.90;;;;;;5015997;28;19906;-70
2022/04/10 01:36:22;;;;;;;;;;;1.80;99.90;;;;;;5015927;28;20403;-70
2022/04/10 01:38:48;;;;;;;;;;;1.80;99.90;;;;;;5031520;28;19905;-70
2022/04/10 01:41:14;;;;;;;;;;;1.80;99.90;;;;;;5015867;28;20415;-70
2022/04/10 01:43:46;;;;;;;;;;;1.80;99.90;;;;;;5016069;28;20409;-70
2022/04/10 01:46:12;;;;;;;;;;;1.80;99.90;;;;;;5016549;28;20261;-70
2022/04/10 01:48:38;;;;;;;;;;;1.90;99.90;;;;;;5015615;28;19951;-70
2022/04/10 01:51:03;;;;;;;;;;;1.90;99.90;;;;;;5015930;28;19905;-70
2022/04/10 01:53:29;;;;;;;;;;;1.90;99.90;;;;;;5015563;28;19957;-70
2022/04/10 01:55:55;;;;;;;;;;;1.90;99.90;;;;;;5015518;28;19905;-70
2022/04/10 01:58:20;;;;;;;;;;;1.90;99.90;;;;;;5015692;28;19909;-70
2022/04/10 02:00:46;;;;;;;;;;;1.90;99.90;;;;;;5015030;28;19996;-70
2022/04/10 02:03:11;;;;;;;;;;;1.90;99.90;;;;;;5015636;28;19996;-70
2022/04/10 02:05:37;;;;;;;;;;;1.90;99.90;;;;;;5015590;28;19988;-70
2022/04/10 02:08:02;;;;;;;;;;;1.80;99.90;;;;;;5015170;28;19909;-70
2022/04/10 02:10:28;;;;;;;;;;;1.80;99.90;;;;;;5030441;28;19955;-70
2022/04/10 02:12:54;;;;;;;;;;;1.80;99.90;;;;;;5015116;28;19928;-71
2022/04/10 02:15:19;;;;;;;;;;;1.80;99.90;;;;;;5015144;28;19909;-70
2022/04/10 02:17:45;;;;;;;;;;;1.80;99.90;;;;;;5015302;28;20000;-70
2022/04/10 02:20:10;;;;;;;;;;;1.80;99.90;;;;;;5015098;28;19910;-70
2022/04/10 02:22:36;;;;;;;;;;;1.80;99.90;;;;;;5015305;28;20016;-70
2022/04/10 02:25:02;;;;;;;;;;;1.80;99.90;;;;;;5015039;28;19905;-70
2022/04/10 02:27:28;;;;;;;;;;;1.70;99.90;;;;;;5014895;28;19932;-70
2022/04/10 02:29:53;;;;;;;;;;;1.70;99.90;;;;;;5014799;28;19905;-70
2022/04/10 02:32:19;;;;;;;;;;;1.70;99.90;;;;;;5013622;28;20051;-70
2022/04/10 02:34:44;;;;;;;;;;;1.60;99.90;;;;;;5015349;28;19912;-70
2022/04/10 02:37:10;;;;;;;;;;;1.60;99.90;;;;;;5015064;28;20413;-70
2022/04/10 02:39:36;;;;;;;;;;;1.50;99.90;;;;;;5014675;28;19905;-70
2022/04/10 02:42:01;;;;;;;;;;;1.50;99.90;;;;;;5014968;28;19915;-70
2022/04/10 02:44:27;;;;;;;;;;;1.50;99.90;;;;;;5014699;28;19905;-70
2022/04/10 02:46:53;;;;;;;;;;;1.50;99.90;;;;;;5014542;28;19916;-70
2022/04/10 02:49:19;;;;;;;;;;;1.50;99.90;;;;;;5014549;28;19909;-70
2022/04/10 02:51:46;;;;;;;;;;;1.50;99.90;;;;;;5014557;28;20324;-70
2022/04/10 02:54:11;;;;;;;;;;;1.40;99.90;;;;;;5014568;28;20284;-70
2022/04/10 02:56:37;;;;;;;;;;;1.40;99.90;;;;;;5014461;28;19992;-69
2022/04/10 02:59:02;;;;;;;;;;;1.40;99.90;;;;;;5014368;28;19905;-70
2022/04/10 03:01:28;;;;;;;;;;;1.40;99.90;;;;;;5014389;28;19905;-70
2022/04/10 03:03:54;;;;;;;;;;;1.50;99.90;;;;;;5014377;28;19913;-70
2022/04/10 03:06:19;;;;;;;;;;;1.50;99.90;;;;;;5014525;28;19913;-70
2022/04/10 03:08:45;;;;;;;;;;;1.60;99.90;;;;;;5014226;28;19911;-70
2022/04/10 03:11:10;;;;;;;;;;;1.60;99.90;;;;;;5013908;28;19909;-70
2022/04/10 03:13:36;;;;;;;;;;;1.50;99.90;;;;;;5014061;28;19961;-70
2022/04/10 03:16:02;;;;;;;;;;;1.40;99.90;;;;;;5014180;28;19957;-70
2022/04/10 03:18:28;;;;;;;;;;;1.40;99.90;;;;;;5014128;28;19956;-70
2022/04/10 03:20:53;;;;;;;;;;;1.30;99.90;;;;;;5014102;28;19905;-70
2022/04/10 03:23:19;;;;;;;;;;;1.30;99.90;;;;;;5014097;28;19905;-70
2022/04/10 03:25:44;;;;;;;;;;;1.30;99.90;;;;;;5014396;28;20268;-70
2022/04/10 03:28:10;;;;;;;;;;;1.30;99.90;;;;;;5013952;28;20258;-70
2022/04/10 03:30:35;;;;;;;;;;;1.30;99.90;;;;;;5014301;28;19913;-70
2022/04/10 03:33:01;;;;;;;;;;;1.30;99.90;;;;;;5014001;28;20016;-70
2022/04/10 03:35:26;;;;;;;;;;;1.30;99.90;;;;;;5014019;28;19912;-70
2022/04/10 03:37:52;;;;;;;;;;;1.20;99.90;;;;;;5014211;28;19917;-70
2022/04/10 03:40:17;;;;;;;;;;;1.10;99.90;;;;;;5013967;28;19955;-70
2022/04/10 03:42:43;;;;;;;;;;;1.20;99.90;;;;;;5013998;28;19912;-70
2022/04/10 03:45:09;;;;;;;;;;;1.20;99.90;;;;;;5014162;28;19928;-70
2022/04/10 03:47:35;;;;;;;;;;;1.30;99.90;;;;;;5013830;28;19909;-70
2022/04/10 03:50:00;;;;;;;;;;;1.30;99.90;;;;;;5013816;28;19928;-70
2022/04/10 03:52:26;;;;;;;;;;;1.30;99.90;;;;;;5013889;28;19905;-70
2022/04/10 03:54:51;;;;;;;;;;;1.40;99.90;;;;;;5013837;28;20357;-70
2022/04/10 03:57:17;;;;;;;;;;;1.40;99.90;;;;;;5014083;28;20421;-70
2022/04/10 03:59:42;;;;;;;;;;;1.50;99.90;;;;;;5013723;28;20324;-70
2022/04/10 04:02:08;;;;;;;;;;;1.50;99.90;;;;;;5014023;28;19905;-70
2022/04/10 04:04:36;;;;;;;;;;;1.50;99.90;;;;;;5013736;28;19988;-70
2022/04/10 04:07:01;;;;;;;;;;;1.40;99.90;;;;;;5013659;28;19913;-70
2022/04/10 04:09:27;;;;;;;;;;;1.40;99.90;;;;;;5013638;28;20000;-70
2022/04/10 04:11:52;;;;;;;;;;;1.40;99.90;;;;;;5013666;28;19906;-70
2022/04/10 04:14:19;;;;;;;;;;;1.30;99.90;;;;;;5013550;28;19956;-70
2022/04/10 04:16:44;;;;;;;;;;;1.30;99.90;;;;;;5013626;28;19956;-70
2022/04/10 04:19:10;;;;;;;;;;;1.30;99.90;;;;;;5013523;28;19943;-70
2022/04/10 04:21:36;;;;;;;;;;;1.30;99.90;;;;;;5013629;28;19906;-68
2022/04/10 04:24:01;;;;;;;;;;;1.30;99.90;;;;;;5016532;28;19905;-69
2022/04/10 04:26:27;;;;;;;;;;;1.20;99.90;;;;;;5032351;28;19905;-69
2022/04/10 04:28:52;;;;;;;;;;;1.20;99.90;;;;;;5017381;28;20392;-69
2022/04/10 04:31:18;;;;;;;;;;;1.20;99.90;;;;;;5032336;28;19915;-70
2022/04/10 04:33:43;;;;;;;;;;;1.20;99.90;;;;;;5017369;28;19932;-70
2022/04/10 04:36:09;;;;;;;;;;;1.20;99.90;;;;;;5017025;28;19905;-70
2022/04/10 04:38:35;;;;;;;;;;;1.20;99.90;;;;;;5017440;28;19901;-70
2022/04/10 04:41:00;;;;;;;;;;;1.20;99.90;;;;;;5016935;28;19909;-70
2022/04/10 04:43:26;;;;;;;;;;;1.30;99.90;;;;;;5017171;28;19996;-69
2022/04/10 04:45:51;;;;;;;;;;;1.30;99.90;;;;;;5016807;28;19906;-69
2022/04/10 04:48:17;;;;;;;;;;;1.30;99.90;;;;;;5016970;28;19910;-69
2022/04/10 04:50:44;;;;;;;;;;;1.30;99.90;;;;;;5016718;28;19912;-69
2022/04/10 04:53:09;;;;;;;;;;;1.30;99.90;;;;;;5031959;28;19996;-69
2022/04/10 04:55:35;;;;;;;;;;;1.30;99.90;;;;;;5031912;28;19940;-69
2022/04/10 04:58:00;;;;;;;;;;;1.30;99.90;;;;;;5016814;28;19906;-69
2022/04/10 05:00:26;;;;;;;;;;;1.30;99.90;;;;;;5016840;28;20430;-69
2022/04/10 05:02:51;;;;;;;;;;;1.30;99.90;;;;;;5016582;28;19991;-69
2022/04/10 05:05:17;;;;;;;;;;;1.20;99.90;;;;;;5016465;28;19905;-69
2022/04/10 05:07:43;;;;;;;;;;;1.30;99.90;;;;;;5016316;28;20064;-70
2022/04/10 05:10:08;;;;;;;;;;;1.20;99.90;;;;;;5016991;28;19908;-69
2022/04/10 05:12:34;;;;;;;;;;;1.20;99.90;;;;;;5016667;28;19905;-69
2022/04/10 05:15:00;;;;;;;;;;;1.30;99.90;;;;;;5016234;28;19920;-70
2022/04/10 05:17:28;;;;;;;;;;;1.30;99.90;;;;;;5031614;28;19909;-69
2022/04/10 05:19:53;;;;;;;;;;;1.40;99.90;;;;;;5016508;28;20444;-69
2022/04/10 05:22:19;;;;;;;;;;;1.40;99.90;;;;;;5016187;28;19936;-70
2022/04/10 05:24:45;;;;;;;;;;;1.40;99.90;;;;;;5016393;28;19912;-70
2022/04/10 05:27:10;;;;;;;;;;;1.40;99.90;;;;;;5016324;28;20083;-70
2022/04/10 05:29:36;;;;;;;;;;;1.40;99.90;;;;;;5015977;28;19905;-70
2022/04/10 05:32:02;;;;;;;;;;;1.40;99.90;;;;;;5031257;28;19959;-69
2022/04/10 05:34:27;;;;;;;;;;;1.40;99.90;;;;;;5015220;28;19909;-69
2022/04/10 05:36:53;;;;;;;;;;;1.40;99.90;;;;;;5016274;28;19975;-69
2022/04/10 05:39:18;;;;;;;;;;;1.30;99.90;;;;;;5015821;28;19905;-70
2022/04/10 05:41:44;;;;;;;;;;;1.30;99.90;;;;;;5015812;28;20322;-69
2022/04/10 05:44:10;;;;;;;;;;;1.30;99.90;;;;;;5016351;28;19945;-69
2022/04/10 05:46:38;;;;;;;;;;;1.20;99.90;;;;;;5015922;28;19992;-69
2022/04/10 05:49:05;;;;;;;;;;;1.30;99.90;;;;;;5015671;28;20262;-69
2022/04/10 05:51:31;;;;;;;;;;;1.20;99.90;;;;;;5015634;28;19936;-69
2022/04/10 05:53:56;;;;;;;;;;;1.30;99.90;;;;;;5015580;28;19909;-69
2022/04/10 05:56:22;;;;;;;;;;;1.30;99.90;;;;;;5015487;28;19913;-69
2022/04/10 05:58:47;;;;;;;;;;;1.20;99.90;;;;;;5015687;28;19905;-69
2022/04/10 06:01:13;;;;;;;;;;;1.30;99.90;;;;;;5015447;28;20350;-69
2022/04/10 06:03:39;;;;;;;;;;;1.30;99.90;;;;;;5015698;28;19913;-69
2022/04/10 06:06:05;;;;;;;;;;;1.40;99.90;;;;;;5015665;28;19928;-69
2022/04/10 06:08:30;;;;;;;;;;;1.40;99.90;;;;;;5015446;28;19956;-69
2022/04/10 06:10:56;;;;;;;;;;;1.40;99.90;;;;;;5015587;28;19906;-69
2022/04/10 06:13:21;;;;;;;;;;;1.40;99.90;;;;;;5015606;28;19957;-69
2022/04/10 06:15:47;;;;;;;;;;;1.50;99.90;;;;;;5015314;28;19938;-69
2022/04/10 06:18:13;;;;;;;;;;;1.50;99.90;;;;;;5015340;28;19906;-69
2022/04/10 06:20:39;;;;;;;;;;;1.50;99.90;;;;;;5030405;28;19913;-69
2022/04/10 06:23:05;;;;;;;;;;;1.60;99.90;;;;;;5030359;28;19905;-69
2022/04/10 06:25:30;;;;;;;;;;;1.60;99.90;;;;;;5013815;28;19964;-69
2022/04/10 06:27:59;;;;;;;;;;;1.70;99.90;;;;;;5014922;28;20071;-69
2022/04/10 06:30:24;;;;;;;;;;;1.80;99.90;;;;;;5015245;28;19906;-69
2022/04/10 06:32:50;;;;;;;;;;;1.80;99.90;;;;;;5030267;28;20281;-69
2022/04/10 06:35:16;;;;;;;;;;;2.00;99.90;;;;;;5014885;28;20376;-69
2022/04/10 06:37:43;;;;;;;;;;;2.00;99.90;;;;;;5029970;28;19917;-69
2022/04/10 06:40:08;;;;;;;;;;;2.10;99.90;;;;;;5015112;28;19901;-69
2022/04/10 06:42:34;;;;;;;;;;;2.10;99.90;;;;;;5014699;28;19911;-68
2022/04/10 06:45:00;;;;;;;;;;;2.10;99.90;;;;;;5015034;28;19951;-69
2022/04/10 06:47:27;;;;;;;;;;;2.10;99.90;;;;;;5014899;28;19909;-69
2022/04/10 06:49:57;;;;;;;;;;;2.10;99.90;;;;;;5014638;28;20277;-69
2022/04/10 06:52:22;;;;;;;;;;;2.10;99.90;;;;;;5029881;28;19906;-69
2022/04/10 06:54:48;;;;;;;;;;;2.10;99.90;;;;;;5014646;28;19905;-69
2022/04/10 06:57:13;;;;;;;;;;;2.00;99.90;;;;;;5014788;28;20338;-69
2022/04/10 06:59:39;;;;;;;;;;;2.00;99.90;;;;;;5014994;28;19972;-69
2022/04/10 07:02:04;;;;;;;;;;;2.00;99.90;;;;;;5014437;28;20346;-69
2022/04/10 07:04:30;;;;;;;;;;;2.10;99.90;;;;;;5014794;28;19912;-69
2022/04/10 07:06:55;;;;;;;;;;;2.10;99.90;;;;;;5014924;28;20016;-69
2022/04/10 07:09:22;;;;;;;;;;;2.20;99.90;;;;;;5014369;28;19916;-69
2022/04/10 07:11:48;;;;;;;;;;;2.10;99.90;;;;;;5014740;28;19992;-69
2022/04/10 07:14:13;;;;;;;;;;;2.10;99.90;;;;;;5014447;28;20396;-69
2022/04/10 07:16:39;;;;;;;;;;;2.20;99.90;;;;;;5014138;28;19905;-69
2022/04/10 07:19:06;;;;;;;;;;;2.20;99.90;;;;;;5014366;28;19999;-68
2022/04/10 07:24:16;;;;;;;;;;;2.20;99.90;;;;;;5014910;28;19912;-71
2022/04/10 07:26:41;;;;;;;;;;;2.10;99.90;;;;;;5014680;28;20035;-70
2022/04/10 07:29:10;;;;;;;;;;;2.10;99.90;;;;;;5014901;28;20008;-70
2022/04/10 07:31:35;;;;;;;;;;;2.00;99.90;;;;;;5029519;28;19992;-70
2022/04/10 07:34:01;;;;;;;;;;;1.90;99.90;;;;;;5014433;28;19948;-70
2022/04/10 07:36:27;;;;;;;;;;;1.90;99.90;;;;;;5014669;28;19959;-70
2022/04/10 07:38:52;;;;;;;;;;;1.80;99.90;;;;;;5014043;28;20008;-70
2022/04/10 07:41:18;;;;;;;;;;;1.70;99.90;;;;;;5014252;28;20004;-70
2022/04/10 07:43:43;;;;;;;;;;;1.70;99.90;;;;;;5014567;28;19912;-70
2022/04/10 07:48:53;;;;;;;;;;;1.60;99.90;;;;;;5014251;28;19916;-71
2022/04/10 07:51:18;;;;;;;;;;;1.70;99.90;;;;;;5014565;28;19906;-71
2022/04/10 07:53:44;;;;;;;;;;;1.80;99.90;;;;;;5029103;28;19999;-71
2022/04/10 07:56:09;;;;;;;;;;;1.80;99.90;;;;;;5029039;28;19913;-71
2022/04/10 07:58:37;;;;;;;;;;;2.00;99.90;;;;;;5016211;28;19912;-71
2022/04/10 08:01:03;;;;;;;;;;;2.10;99.90;;;;;;5033096;28;19916;-71
2022/04/10 08:03:28;;;;;;;;;;;2.20;99.90;;;;;;5017729;28;19906;-70
2022/04/10 08:05:54;;;;;;;;;;;2.30;99.90;;;;;;5016633;28;19912;-70
2022/04/10 08:08:20;;;;;;;;;;;2.30;99.90;;;;;;5017845;28;19967;-71
2022/04/10 08:10:46;;;;;;;;;;;2.50;99.90;;;;;;5017938;28;20343;-71
2022/04/10 08:13:11;;;;;;;;;;;2.50;99.90;;;;;;5017903;28;19972;-70
2022/04/10 08:15:37;;;;;;;;;;;2.50;99.90;;;;;;5017520;28;19901;-70
2022/04/10 08:18:03;;;;;;;;;;;2.60;99.90;;;;;;5017669;28;19928;-72
2022/04/10 08:20:30;;;;;;;;;;;2.60;99.90;;;;;;5017407;28;19956;-72
2022/04/10 08:22:59;;;;;;;;;;;2.60;99.90;;;;;;5017665;28;20353;-71
2022/04/10 08:25:25;;;;;;;;;;;2.60;99.90;;;;;;5017875;28;19905;-72
2022/04/10 08:27:51;;;;;;;;;;;2.60;99.90;;;;;;5017045;28;20277;-72
2022/04/10 08:30:17;;;;;;;;;;;2.50;99.90;;;;;;5017483;28;19901;-72
2022/04/10 08:32:43;;;;;;;;;;;2.50;99.90;;;;;;5017517;28;19912;-72
2022/04/10 08:35:09;;;;;;;;;;;2.60;99.90;;;;;;5032383;28;20365;-72
2022/04/10 08:37:34;;;;;;;;;;;2.50;99.90;;;;;;5017071;28;20312;-72
2022/04/10 08:40:00;;;;;;;;;;;2.60;99.90;;;;;;5016939;28;19905;-72
2022/04/10 08:42:26;;;;;;;;;;;2.60;99.90;;;;;;5032255;28;19906;-72
2022/04/10 08:44:52;;;;;;;;;;;2.60;99.90;;;;;;5017141;28;19910;-72
2022/04/10 08:47:20;;;;;;;;;;;2.70;99.90;;;;;;5017404;28;19909;-72
2022/04/10 08:49:46;;;;;;;;;;;2.80;99.90;;;;;;5031932;28;19913;-72
2022/04/10 08:52:12;;;;;;;;;;;2.90;99.90;;;;;;5017069;28;19906;-72
2022/04/10 08:54:40;;;;;;;;;;;3.00;99.90;;;;;;5016799;28;20043;-72
2022/04/10 08:57:06;;;;;;;;;;;3.10;99.90;;;;;;5031889;28;20425;-72
2022/04/10 08:59:32;;;;;;;;;;;3.20;99.90;;;;;;5016895;28;19968;-72
2022/04/10 09:01:58;;;;;;;;;;;3.30;99.90;;;;;;5016953;28;19905;-72
2022/04/10 09:04:24;;;;;;;;;;;3.30;99.90;;;;;;5016894;28;20273;-72
2022/04/10 09:06:59;;;;;;;;;;;3.40;99.90;;;;;;5016754;28;20346;-72
2022/04/10 09:09:25;;;;;;;;;;;3.40;99.90;;;;;;5015320;28;19913;-73
2022/04/10 09:11:53;;;;;;;;;;;3.40;99.90;;;;;;5016778;28;20281;-71
2022/04/10 09:14:25;;;;;;;;;;;3.50;99.90;;;;;;5031487;28;19918;-72
2022/04/10 09:17:09;;;;;;;;;;;3.60;99.90;;;;;;5016980;28;20428;-71
2022/04/10 09:19:36;;;;;;;;;;;3.80;99.90;;;;;;5016254;28;19996;-72
2022/04/10 09:22:20;;;;;;;;;;;3.90;99.90;;;;;;5016196;28;19910;-71
2022/04/10 09:25:04;;;;;;;;;;;4.00;99.90;;;;;;5016703;28;19912;-71
2022/04/10 09:27:31;;;;;;;;;;;3.90;99.90;;;;;;5014997;28;20349;-71
2022/04/10 09:29:57;;;;;;;;;;;3.90;99.90;;;;;;5016081;28;19913;-71
2022/04/10 09:32:23;;;;;;;;;;;3.90;99.90;;;;;;5016070;28;19905;-70
2022/04/10 09:34:55;;;;;;;;;;;3.80;99.90;;;;;;5016226;28;19912;-70
2022/04/10 09:37:20;;;;;;;;;;;3.70;99.90;;;;;;5015889;28;19906;-70
2022/04/10 09:39:46;;;;;;;;;;;3.60;99.90;;;;;;5014869;28;20328;-71
2022/04/10 09:42:12;;;;;;;;;;;3.60;99.90;;;;;;5015796;28;20365;-71
2022/04/10 09:44:38;;;;;;;;;;;3.50;99.90;;;;;;5015818;28;20353;-70
2022/04/10 09:47:06;;;;;;;;;;;3.40;99.90;;;;;;5015952;28;19957;-71
2022/04/10 09:49:35;;;;;;;;;;;3.30;99.90;;;;;;5015681;28;19909;-70
2022/04/10 09:52:08;;;;;;;;;;;3.30;99.90;;;;;;5016193;28;19905;-70
2022/04/10 09:54:33;;;;;;;;;;;3.20;99.90;;;;;;5015976;28;19906;-70
2022/04/10 09:57:03;;;;;;;;;;;3.10;99.90;;;;;;5015905;28;19905;-70
2022/04/10 09:59:30;;;;;;;;;;;3.00;99.90;;;;;;5015478;28;19984;-70
2022/04/10 10:01:56;;;;;;;;;;;2.90;99.90;;;;;;5015481;28;19905;-71
2022/04/10 10:04:22;;;;;;;;;;;2.80;99.90;;;;;;5016080;28;19916;-69
2022/04/10 10:06:49;;;;;;;;;;;2.80;99.90;;;;;;5015605;28;19951;-70
2022/04/10 10:09:14;;;;;;;;;;;2.80;99.90;;;;;;5015322;28;19906;-71
2022/04/10 10:11:40;;;;;;;;;;;2.70;99.90;;;;;;5015849;28;19912;-69
2022/04/10 10:14:06;;;;;;;;;;;2.60;99.90;;;;;;5015245;28;19917;-70
2022/04/10 10:16:34;;;;;;;;;;;2.60;99.90;;;;;;5015398;28;20285;-70
2022/04/10 10:19:00;;;;;;;;;;;2.50;99.90;;;;;;5015353;28;20366;-70
2022/04/10 10:21:26;;;;;;;;;;;2.40;99.90;;;;;;5015129;28;19960;-71
2022/04/10 10:23:52;;;;;;;;;;;2.30;99.90;;;;;;5015117;28;19909;-71
2022/04/10 10:26:37;;;;;;;;;;;2.20;99.90;;;;;;5015337;28;19948;-70
2022/04/10 10:29:08;;;;;;;;;;;2.30;99.90;;;;;;5014897;28;19913;-71
2022/04/10 10:31:37;;;;;;;;;;;2.30;99.90;;;;;;5015238;28;19905;-71
2022/04/10 10:34:05;;;;;;;;;;;2.30;99.90;;;;;;5014938;28;19911;-71
2022/04/10 10:36:31;;;;;;;;;;;2.20;99.90;;;;;;5015189;28;19905;-71
2022/04/10 10:38:57;;;;;;;;;;;2.30;99.90;;;;;;5031819;23;20496;-78
2022/04/10 10:41:22;;;;;;;;;;;2.30;99.90;;;;;;5057798;28;19905;-77
2022/04/10 10:43:48;;;;;;;;;;;2.40;99.90;;;;;;5059906;28;19911;-78
2022/04/10 10:46:24;;;;;;;;;;;2.50;99.90;;;;;;5059983;28;19927;-77
2022/04/10 10:49:10;;;;;;;;;;;2.60;99.90;;;;;;5059856;28;19913;-77
2022/04/10 10:51:35;;;;;;;;;;;2.70;99.90;;;;;;5059084;28;19947;-78
2022/04/10 10:54:01;;;;;;;;;;;2.80;99.90;;;;;;5060571;28;19904;-78
2022/04/10 10:56:30;;;;;;;;;;;2.90;99.90;;;;;;5061153;28;19912;-78
2022/04/10 10:59:16;;;;;;;;;;;3.10;99.90;;;;;;5062764;28;19935;-78
2022/04/10 11:01:52;;;;;;;;;;;3.40;99.90;;;;;;5062079;28;19912;-78
2022/04/10 11:04:19;;;;;;;;;;;3.70;99.90;;;;;;5060866;28;20331;-78
2022/04/10 11:06:47;;;;;;;;;;;4.00;99.90;;;;;;5060190;28;19958;-78
2022/04/10 11:09:19;;;;;;;;;;;4.30;99.90;;;;;;5058871;28;19995;-78
2022/04/10 11:11:45;;;;;;;;;;;4.40;99.90;;;;;;5054474;28;19944;-77
2022/04/10 11:14:30;;;;;;;;;;;4.50;99.90;;;;;;5054266;28;19905;-77
2022/04/10 11:17:06;;;;;;;;;;;4.40;99.90;;;;;;5057437;28;19904;-77
2022/04/10 11:19:32;;;;;;;;;;;4.30;99.90;;;;;;5056925;28;19908;-77
2022/04/10 11:21:57;;;;;;;;;;;4.30;99.90;;;;;;5054603;28;19909;-78
2022/04/10 11:24:23;;;;;;;;;;;4.30;99.90;;;;;;5056285;28;19963;-77
2022/04/10 11:26:48;;;;;;;;;;;4.40;99.90;;;;;;5057456;28;19904;-77
2022/04/10 11:29:15;;;;;;;;;;;4.50;99.90;;;;;;5057684;28;19936;-77
2022/04/10 11:31:44;;;;;;;;;;;4.60;99.90;;;;;;5055941;28;19904;-77
2022/04/10 11:34:19;;;;;;;;;;;4.60;99.90;;;;;;5056673;28;19905;-78
2022/04/10 11:36:49;;;;;;;;;;;4.70;99.90;;;;;;5062539;28;19905;-78
2022/04/10 11:39:18;;;;;;;;;;;4.70;99.90;;;;;;5059325;28;19913;-77
2022/04/10 11:41:43;;;;;;;;;;;4.60;99.90;;;;;;5056831;28;19905;-77
2022/04/10 11:44:09;;;;;;;;;;;4.50;99.90;;;;;;5055928;28;19911;-77
2022/04/10 11:46:35;;;;;;;;;;;4.40;99.90;;;;;;5056315;28;19948;-77
2022/04/10 11:49:01;;;;;;;;;;;4.30;99.90;;;;;;5058144;28;19912;-77
2022/04/10 11:51:27;;;;;;;;;;;4.10;99.90;;;;;;5057993;28;19915;-77
2022/04/10 11:53:55;;;;;;;;;;;4.10;99.90;;;;;;5056629;28;19905;-77
2022/04/10 11:56:21;;;;;;;;;;;4.00;99.90;;;;;;5056934;28;20408;-77
2022/04/10 11:58:47;;;;;;;;;;;3.90;99.90;;;;;;5058022;28;19940;-77
2022/04/10 12:01:12;;;;;;;;;;;3.70;99.90;;;;;;5055930;28;19911;-77
2022/04/10 12:03:43;;;;;;;;;;;3.60;99.90;;;;;;5056204;28;20384;-77
2022/04/10 12:06:09;;;;;;;;;;;3.30;99.90;;;;;;5057075;28;19912;-77
2022/04/10 12:08:35;;;;;;;;;;;3.20;99.90;;;;;;5055858;28;19909;-77
2022/04/10 12:11:02;;;;;;;;;;;3.20;99.90;;;;;;5057048;28;20070;-77
2022/04/10 12:13:34;;;;;;;;;;;3.30;99.90;;;;;;5057468;28;19905;-77
2022/04/10 12:16:00;;;;;;;;;;;3.50;99.90;;;;;;5056682;28;19972;-77
2022/04/10 12:18:25;;;;;;;;;;;3.70;99.90;;;;;;5057639;28;19932;-77
2022/04/10 12:20:56;;;;;;;;;;;4.00;99.90;;;;;;5057088;28;20310;-77
2022/04/10 12:23:26;;;;;;;;;;;4.10;99.90;;;;;;5058705;28;19905;-77
2022/04/10 12:25:53;;;;;;;;;;;4.40;99.90;;;;;;5057442;28;20407;-77
2022/04/10 12:28:19;;;;;;;;;;;4.40;99.90;;;;;;5057369;28;19909;-77
2022/04/10 12:30:45;;;;;;;;;;;4.40;99.90;;;;;;5057387;28;19904;-77
2022/04/10 12:33:11;;;;;;;;;;;4.40;99.90;;;;;;5057499;28;20005;-77
2022/04/10 12:35:40;;;;;;;;;;;4.40;99.90;;;;;;5057922;28;19908;-77
2022/04/10 12:38:06;;;;;;;;;;;4.30;99.90;;;;;;5056829;28;19912;-78
2022/04/10 12:40:32;;;;;;;;;;;4.30;99.90;;;;;;5056287;28;19913;-77
2022/04/10 12:42:59;;;;;;;;;;;4.30;99.90;;;;;;5055184;28;20402;-77
2022/04/10 12:45:27;;;;;;;;;;;4.40;99.90;;;;;;5059327;28;19967;-77
2022/04/10 12:47:52;;;;;;;;;;;4.40;99.90;;;;;;5059568;28;19909;-77
2022/04/10 12:50:19;;;;;;;;;;;4.50;99.90;;;;;;5059446;28;19957;-77
2022/04/10 12:52:45;;;;;;;;;;;4.50;99.90;;;;;;5059804;28;19905;-77
2022/04/10 12:55:18;;;;;;;;;;;4.50;99.90;;;;;;5058899;28;19905;-77
2022/04/10 12:57:52;;;;;;;;;;;4.50;99.90;;;;;;5059685;28;19912;-77
2022/04/10 13:00:24;;;;;;;;;;;4.40;99.90;;;;;;5059476;28;19909;-77
2022/04/10 13:02:49;;;;;;;;;;;4.30;99.90;;;;;;5058287;28;20003;-77
2022/04/10 13:05:16;;;;;;;;;;;4.20;99.90;;;;;;5058276;28;19944;-77
2022/04/10 13:07:54;;;;;;;;;;;4.20;99.90;;;;;;5058171;28;19944;-77
2022/04/10 13:10:19;;;;;;;;;;;4.10;99.90;;;;;;5059774;28;19912;-77
2022/04/10 13:12:45;;;;;;;;;;;4.10;99.90;;;;;;5060105;28;20372;-77
2022/04/10 13:15:11;;;;;;;;;;;4.10;99.90;;;;;;5060118;28;19992;-77
2022/04/10 13:17:38;;;;;;;;;;;4.10;99.90;;;;;;5058807;28;19916;-77
2022/04/10 13:20:10;;;;;;;;;;;4.10;99.90;;;;;;5058315;28;19904;-77
2022/04/10 13:22:37;;;;;;;;;;;4.20;99.90;;;;;;5060138;28;20373;-77
2022/04/10 13:25:04;;;;;;;;;;;4.30;99.90;;;;;;5059130;28;19963;-77
2022/04/10 13:27:30;;;;;;;;;;;4.30;99.90;;;;;;5058340;28;20364;-77
2022/04/10 13:29:55;;;;;;;;;;;4.30;99.90;;;;;;5059501;28;19912;-77
2022/04/10 13:32:21;;;;;;;;;;;4.30;99.90;;;;;;5059645;28;19905;-77
2022/04/10 13:34:46;;;;;;;;;;;4.30;99.90;;;;;;5059150;28;19909;-77
2022/04/10 13:37:12;;;;;;;;;;;4.40;99.90;;;;;;5059271;28;20391;-79
2022/04/10 13:39:38;;;;;;;;;;;4.40;99.90;;;;;;5057912;28;19920;-79
2022/04/10 13:42:03;;;;;;;;;;;4.50;99.90;;;;;;5055953;28;19951;-78
2022/04/10 13:44:29;;;;;;;;;;;4.60;99.90;;;;;;5057908;28;19983;-79
2022/04/10 13:46:55;;;;;;;;;;;4.70;99.90;;;;;;5057321;28;20356;-79
2022/04/10 13:49:21;;;;;;;;;;;4.70;99.90;;;;;;5056402;28;19936;-78
2022/04/10 13:51:46;;;;;;;;;;;4.90;99.90;;;;;;5058088;28;19958;-79
2022/04/10 13:54:12;;;;;;;;;;;4.90;99.90;;;;;;5057405;28;19905;-79
2022/04/10 13:56:38;;;;;;;;;;;4.80;99.90;;;;;;5057001;28;20261;-78
2022/04/10 13:59:03;;;;;;;;;;;4.90;99.90;;;;;;5057307;28;19943;-79
2022/04/10 14:01:29;;;;;;;;;;;4.90;99.90;;;;;;5055648;28;19911;-78
2022/04/10 14:03:55;;;;;;;;;;;5.00;99.90;;;;;;5056896;28;19905;-79
2022/04/10 14:06:21;;;;;;;;;;;5.10;99.90;;;;;;5055675;28;19970;-79
2022/04/10 14:08:46;;;;;;;;;;;5.30;99.90;;;;;;5056607;28;19935;-79
2022/04/10 14:11:13;;;;;;;;;;;5.60;99.90;;;;;;5056800;28;19921;-79
2022/04/10 14:13:39;;;;;;;;;;;6.00;99.90;;;;;;5056639;28;19904;-78
2022/04/10 14:16:04;;;;;;;;;;;6.30;99.90;;;;;;5057340;28;19912;-78
2022/04/10 14:18:30;;;;;;;;;;;6.40;99.90;;;;;;5056464;28;20284;-78
2022/04/10 14:20:56;;;;;;;;;;;6.50;99.90;;;;;;5055097;28;19951;-78
2022/04/10 14:23:21;;;;;;;;;;;6.50;99.90;;;;;;5056570;28;19904;-79
2022/04/10 14:25:47;;;;;;;;;;;6.50;99.90;;;;;;5056355;28;19948;-78
2022/04/10 14:28:12;;;;;;;;;;;6.40;99.90;;;;;;5056458;28;19974;-78
2022/04/10 14:30:38;;;;;;;;;;;6.40;99.90;;;;;;5056278;28;19904;-78
2022/04/10 14:33:03;;;;;;;;;;;6.30;99.90;;;;;;5056358;28;20417;-78